Time;durP1;ratioP1;P1;durP2;ratioP2;P2;SDS_P1;SDS_P2;PMS_P1;PMS_P2;Temp;Humidity;BMP_temperature;BMP_pressure;BME280_temperature;BME280_humidity;BME280_pressure;Samples;Min_cycle;Max_cycle;Signal;HPM_P1;HPM_P2
2021/08/19 00:03:37;;;;;;;1.00;0.70;;;19.80;73.40;;;;;;10133612;28;20387;-60
2021/08/19 00:08:28;;;;;;;1.80;0.90;;;19.80;73.50;;;;;;10133135;28;20258;-61
2021/08/19 00:13:18;;;;;;;1.25;0.80;;;19.70;73.50;;;;;;10139347;28;20046;-61
2021/08/19 00:18:09;;;;;;;0.77;0.70;;;19.60;73.80;;;;;;10145926;28;20036;-62
2021/08/19 00:23:01;;;;;;;2.05;1.08;;;19.60;73.90;;;;;;10118793;28;20644;-61
2021/08/19 00:27:52;;;;;;;1.20;0.90;;;19.50;73.80;;;;;;10149046;28;20017;-61
2021/08/19 00:32:42;;;;;;;1.38;0.80;;;19.50;73.90;;;;;;10141842;28;20085;-61
2021/08/19 00:37:33;;;;;;;1.90;1.00;;;19.60;73.90;;;;;;10144087;28;20118;-60
2021/08/19 00:42:24;;;;;;;1.52;0.77;;;19.60;73.80;;;;;;10145141;28;20032;-60
2021/08/19 00:47:14;;;;;;;0.95;0.60;;;19.60;73.80;;;;;;10143084;28;20052;-60
2021/08/19 00:52:06;;;;;;;1.90;0.80;;;19.60;73.80;;;;;;10152387;28;20016;-61
2021/08/19 00:56:59;;;;;;;1.30;0.80;;;19.60;73.70;;;;;;10143987;28;20101;-62
2021/08/19 01:01:54;;;;;;;1.27;0.68;;;19.70;73.50;;;;;;10139595;28;20020;-60
2021/08/19 01:06:45;;;;;;;0.75;0.73;;;19.60;73.70;;;;;;10140174;28;20075;-61
2021/08/19 01:11:40;;;;;;;0.60;0.60;;;19.70;73.60;;;;;;10145370;28;20368;-59
2021/08/19 01:16:31;;;;;;;0.95;0.60;;;19.70;73.70;;;;;;10145546;28;20222;-60
2021/08/19 01:21:22;;;;;;;1.85;0.57;;;19.40;73.90;;;;;;10146840;28;20524;-61
2021/08/19 01:26:16;;;;;;;0.93;0.75;;;19.40;74.20;;;;;;10146894;28;20060;-61
2021/08/19 01:31:07;;;;;;;0.90;0.80;;;19.40;74.20;;;;;;10137966;28;20029;-60
2021/08/19 01:35:58;;;;;;;0.93;0.70;;;19.50;74.00;;;;;;10138441;28;20070;-60
2021/08/19 01:40:49;;;;;;;1.80;0.98;;;19.50;74.10;;;;;;10137120;28;20033;-60
2021/08/19 01:45:39;;;;;;;0.63;0.60;;;19.60;73.90;;;;;;10150526;28;20105;-61
2021/08/19 01:50:30;;;;;;;1.13;0.93;;;19.60;74.00;;;;;;10140670;28;20032;-61
2021/08/19 01:55:21;;;;;;;1.25;0.95;;;19.50;74.00;;;;;;10138602;28;20032;-60
2021/08/19 02:00:12;;;;;;;1.20;0.80;;;19.50;74.00;;;;;;10121283;28;20024;-60
2021/08/19 02:05:02;;;;;;;1.92;1.48;;;19.60;73.90;;;;;;10135426;28;20158;-60
2021/08/19 02:09:53;;;;;;;1.98;1.42;;;19.60;73.90;;;;;;10138872;28;20116;-60
2021/08/19 02:14:44;;;;;;;2.55;0.95;;;19.70;73.90;;;;;;10141961;28;20037;-61
2021/08/19 02:19:34;;;;;;;0.68;0.60;;;19.50;74.20;;;;;;10143597;28;20132;-60
2021/08/19 02:24:25;;;;;;;0.88;0.60;;;19.60;74.00;;;;;;10141379;28;20502;-60
2021/08/19 02:29:15;;;;;;;1.13;0.70;;;19.70;74.20;;;;;;10139615;28;20098;-60
2021/08/19 02:34:06;;;;;;;0.82;0.55;;;19.70;74.30;;;;;;10136277;28;20552;-60
2021/08/19 02:38:57;;;;;;;0.73;0.70;;;19.70;74.50;;;;;;10146770;28;20417;-60
2021/08/19 02:43:47;;;;;;;0.95;0.82;;;19.60;74.70;;;;;;10137836;28;20052;-61
2021/08/19 02:48:39;;;;;;;1.02;0.60;;;19.70;74.80;;;;;;10143390;28;20462;-60
2021/08/19 02:53:30;;;;;;;2.03;0.82;;;19.50;75.10;;;;;;10145519;28;20032;-59
2021/08/19 02:58:20;;;;;;;1.27;0.77;;;19.50;75.40;;;;;;10148013;28;20048;-62
2021/08/19 03:03:11;;;;;;;2.28;0.73;;;19.50;75.70;;;;;;10151139;28;20024;-60
2021/08/19 03:08:02;;;;;;;0.73;0.63;;;19.50;75.80;;;;;;10146403;28;20029;-60
2021/08/19 03:12:52;;;;;;;1.50;1.10;;;19.50;76.10;;;;;;10151026;28;20104;-60
2021/08/19 03:17:43;;;;;;;0.90;0.43;;;19.50;76.30;;;;;;10133643;28;20042;-60
2021/08/19 03:22:34;;;;;;;1.17;0.73;;;19.50;76.30;;;;;;10134475;28;20436;-60
2021/08/19 03:27:28;;;;;;;1.17;0.60;;;19.40;76.50;;;;;;10135679;28;20054;-61
2021/08/19 03:32:19;;;;;;;0.95;0.80;;;19.40;76.70;;;;;;10146259;28;20043;-61
2021/08/19 03:37:10;;;;;;;1.45;0.70;;;19.40;76.80;;;;;;10135066;28;20554;-60
2021/08/19 03:42:01;;;;;;;1.40;0.60;;;19.30;77.00;;;;;;10118122;28;20035;-60
2021/08/19 03:46:53;;;;;;;1.50;0.80;;;19.30;77.30;;;;;;10143292;28;20426;-59
2021/08/19 03:51:43;;;;;;;1.05;0.65;;;19.30;77.30;;;;;;10142814;28;20490;-61
2021/08/19 03:56:38;;;;;;;1.77;0.80;;;19.30;77.40;;;;;;10135296;28;20123;-61
2021/08/19 04:01:29;;;;;;;1.10;0.50;;;19.30;77.50;;;;;;10141382;28;20028;-60
2021/08/19 04:06:20;;;;;;;1.30;1.05;;;19.30;77.50;;;;;;10142285;28;20561;-61
2021/08/19 04:11:11;;;;;;;1.25;0.63;;;19.20;77.60;;;;;;10137327;28;20093;-61
2021/08/19 04:16:01;;;;;;;1.33;1.00;;;19.30;77.80;;;;;;10138699;28;20313;-60
2021/08/19 04:20:52;;;;;;;2.35;0.60;;;19.20;77.90;;;;;;10133937;28;20026;-60
2021/08/19 04:25:43;;;;;;;0.95;0.77;;;19.10;78.00;;;;;;10133298;28;20093;-59
2021/08/19 04:30:33;;;;;;;2.35;0.70;;;19.10;78.00;;;;;;10135952;28;20369;-60
2021/08/19 04:35:29;;;;;;;1.05;0.77;;;19.20;77.90;;;;;;10134948;28;20068;-60
2021/08/19 04:40:19;;;;;;;0.95;0.65;;;19.20;78.00;;;;;;10136832;28;20012;-61
2021/08/19 04:45:10;;;;;;;1.23;0.95;;;19.30;78.00;;;;;;10140472;28;20426;-61
2021/08/19 04:50:01;;;;;;;1.70;1.00;;;19.30;78.00;;;;;;10139922;28;20219;-60
2021/08/19 04:54:51;;;;;;;1.85;1.40;;;19.30;78.10;;;;;;10135417;28;20449;-62
2021/08/19 04:59:42;;;;;;;1.52;0.80;;;19.30;78.20;;;;;;10137213;28;20025;-60
2021/08/19 05:04:33;;;;;;;1.52;0.70;;;19.30;78.10;;;;;;10140944;28;20032;-60
2021/08/19 05:09:23;;;;;;;1.48;0.80;;;19.30;78.10;;;;;;10123498;28;20036;-61
2021/08/19 05:14:14;;;;;;;1.20;0.88;;;19.30;78.30;;;;;;10148893;28;20106;-60
2021/08/19 05:19:05;;;;;;;1.77;0.95;;;19.30;78.30;;;;;;10141294;28;20044;-60
2021/08/19 05:23:55;;;;;;;0.95;0.73;;;19.30;78.70;;;;;;10148377;28;20078;-62
2021/08/19 05:28:47;;;;;;;1.23;0.93;;;19.30;78.30;;;;;;10140586;28;20057;-61
2021/08/19 05:33:40;;;;;;;1.17;0.80;;;19.40;78.30;;;;;;10148567;28;20079;-61
2021/08/19 05:38:30;;;;;;;2.63;0.90;;;19.40;78.40;;;;;;10144666;28;20036;-61
2021/08/19 05:43:21;;;;;;;2.78;1.98;;;19.40;78.30;;;;;;10141200;28;20502;-61
2021/08/19 05:48:12;;;;;;;2.17;0.82;;;19.40;78.40;;;;;;10138094;28;20032;-62
2021/08/19 05:53:04;;;;;;;1.85;0.93;;;19.60;78.20;;;;;;10136269;28;20455;-61
2021/08/19 05:57:55;;;;;;;1.00;0.60;;;19.70;78.00;;;;;;10128004;28;20918;-60
2021/08/19 06:02:47;;;;;;;0.80;0.73;;;19.70;77.90;;;;;;10139938;28;20647;-61
2021/08/19 06:07:38;;;;;;;1.30;0.70;;;19.70;78.20;;;;;;10151616;28;20032;-60
2021/08/19 06:12:29;;;;;;;1.42;0.98;;;19.70;78.00;;;;;;10141803;28;20052;-60
2021/08/19 06:17:19;;;;;;;1.52;1.02;;;19.80;78.20;;;;;;10141507;28;20223;-61
2021/08/19 06:22:10;;;;;;;2.95;1.20;;;19.70;78.20;;;;;;10143112;28;20020;-62
2021/08/19 06:27:01;;;;;;;1.55;1.00;;;19.80;78.30;;;;;;10144612;28;20089;-61
2021/08/19 06:31:52;;;;;;;3.22;1.00;;;19.80;78.30;;;;;;10145869;28;20344;-62
2021/08/19 06:36:42;;;;;;;1.25;0.90;;;19.90;78.10;;;;;;10144851;28;20032;-63
2021/08/19 06:41:33;;;;;;;1.80;1.05;;;20.00;78.00;;;;;;10147276;28;20038;-61
2021/08/19 06:46:24;;;;;;;2.53;1.10;;;20.20;77.80;;;;;;10140689;28;20020;-64
2021/08/19 06:51:14;;;;;;;2.63;1.10;;;20.10;77.90;;;;;;10142596;28;20445;-64
2021/08/19 06:56:05;;;;;;;1.05;0.90;;;20.20;77.70;;;;;;10134091;28;20306;-65
2021/08/19 07:00:56;;;;;;;3.47;0.95;;;20.30;77.50;;;;;;10141364;28;20020;-63
2021/08/19 07:05:47;;;;;;;2.17;1.10;;;20.30;77.50;;;;;;10152752;28;20093;-64
2021/08/19 07:10:38;;;;;;;1.05;0.80;;;20.50;77.00;;;;;;10138364;28;20044;-64
2021/08/19 07:15:30;;;;;;;1.75;1.00;;;20.60;76.90;;;;;;10146288;28;20125;-63
2021/08/19 07:20:22;;;;;;;1.25;0.95;;;20.60;77.00;;;;;;10140012;28;20112;-64
2021/08/19 07:25:14;;;;;;;1.75;0.95;;;20.70;76.60;;;;;;10146979;28;20462;-64
2021/08/19 07:30:05;;;;;;;1.63;1.08;;;20.80;76.50;;;;;;10144564;28;20067;-64
2021/08/19 07:34:56;;;;;;;1.50;0.90;;;21.00;76.00;;;;;;10143332;28;20062;-63
2021/08/19 07:39:46;;;;;;;1.75;1.10;;;21.00;75.80;;;;;;10145665;28;20032;-64
2021/08/19 07:44:37;;;;;;;2.22;1.42;;;21.00;75.70;;;;;;10143405;28;20025;-64
2021/08/19 07:49:28;;;;;;;1.00;0.80;;;21.00;75.30;;;;;;10147657;28;20265;-65
2021/08/19 07:54:18;;;;;;;1.52;0.68;;;20.90;75.30;;;;;;10143573;28;20081;-63
2021/08/19 07:59:10;;;;;;;3.00;1.00;;;21.00;75.20;;;;;;10137849;28;20040;-64
2021/08/19 08:04:00;;;;;;;4.20;1.25;;;21.00;74.70;;;;;;10146386;28;20069;-64
2021/08/19 08:08:52;;;;;;;1.02;0.77;;;21.20;74.00;;;;;;10134832;28;20380;-64
2021/08/19 08:13:43;;;;;;;1.67;1.10;;;21.30;73.80;;;;;;10150566;28;20048;-64
2021/08/19 08:18:33;;;;;;;1.35;0.82;;;21.30;73.50;;;;;;10149626;28;20686;-63
2021/08/19 08:23:24;;;;;;;1.30;0.90;;;21.40;73.40;;;;;;10137553;28;20103;-67
2021/08/19 08:28:19;;;;;;;1.25;1.05;;;21.50;72.90;;;;;;10139182;28;20520;-63
2021/08/19 08:33:10;;;;;;;1.13;0.93;;;21.60;72.70;;;;;;10144024;28;20028;-63
2021/08/19 08:38:02;;;;;;;3.28;1.55;;;21.80;72.30;;;;;;10143170;28;20103;-63
2021/08/19 08:42:53;;;;;;;1.90;0.90;;;21.80;72.10;;;;;;10147416;28;20235;-63
2021/08/19 08:47:46;;;;;;;1.65;1.15;;;22.00;71.90;;;;;;10156047;28;20669;-64
2021/08/19 08:52:38;;;;;;;1.50;0.90;;;22.00;71.30;;;;;;10142584;28;20506;-64
2021/08/19 08:57:33;;;;;;;2.10;1.27;;;22.20;71.00;;;;;;10146667;28;20036;-64
2021/08/19 09:02:24;;;;;;;1.17;1.00;;;22.20;71.40;;;;;;10151696;28;20039;-64
2021/08/19 09:07:15;;;;;;;3.20;0.70;;;22.10;70.40;;;;;;10151320;28;20032;-64
2021/08/19 09:12:07;;;;;;;1.45;1.02;;;22.20;70.10;;;;;;10145821;28;20434;-64
2021/08/19 09:16:59;;;;;;;4.10;1.10;;;22.40;69.60;;;;;;10146900;28;20317;-64
2021/08/19 09:21:52;;;;;;;1.30;1.05;;;22.80;68.90;;;;;;10147501;28;20206;-64
2021/08/19 09:26:44;;;;;;;1.77;1.20;;;22.80;68.60;;;;;;10146288;28;20250;-64
2021/08/19 09:31:37;;;;;;;2.92;0.80;;;22.60;68.20;;;;;;10147688;28;20332;-64
2021/08/19 09:36:28;;;;;;;1.52;1.40;;;22.70;68.10;;;;;;10147442;28;20033;-65
2021/08/19 09:41:19;;;;;;;1.17;1.00;;;23.00;67.50;;;;;;10150487;28;20096;-63
2021/08/19 09:46:14;;;;;;;2.30;1.10;;;23.20;67.20;;;;;;10155509;28;20127;-64
2021/08/19 09:51:22;;;;;;;2.40;1.30;;;23.40;66.60;;;;;;10133379;28;20024;-64
2021/08/19 09:56:25;;;;;;;1.23;0.77;;;23.30;66.50;;;;;;10152289;28;20040;-64
2021/08/19 10:01:16;;;;;;;2.40;1.05;;;23.20;66.80;;;;;;10140205;28;20510;-63
2021/08/19 10:06:08;;;;;;;1.17;1.00;;;23.40;66.00;;;;;;10154865;28;20025;-64
2021/08/19 10:11:01;;;;;;;1.38;1.00;;;23.50;65.70;;;;;;10143055;28;20047;-65
2021/08/19 10:15:53;;;;;;;1.60;0.98;;;23.50;65.80;;;;;;10142226;28;20044;-63
2021/08/19 10:20:48;;;;;;;2.17;0.93;;;23.90;64.80;;;;;;10146714;28;20028;-65
2021/08/19 10:25:39;;;;;;;1.33;1.13;;;23.90;64.40;;;;;;10147277;28;20039;-64
2021/08/19 10:30:30;;;;;;;8.88;3.40;;;23.80;64.10;;;;;;10128412;28;20082;-63
2021/08/19 10:35:27;;;;;;;2.63;1.10;;;23.60;64.30;;;;;;10143143;28;20367;-64
2021/08/19 10:40:24;;;;;;;1.30;1.00;;;23.90;63.50;;;;;;10147908;28;20036;-65
2021/08/19 10:45:27;;;;;;;2.40;1.20;;;24.30;62.80;;;;;;10144978;28;20507;-63
2021/08/19 10:50:44;;;;;;;1.80;1.30;;;24.80;62.30;;;;;;10147241;28;20036;-63
2021/08/19 10:55:41;;;;;;;1.38;1.08;;;24.90;61.40;;;;;;10147667;28;20446;-64
2021/08/19 11:00:37;;;;;;;2.47;1.25;;;25.00;61.60;;;;;;10141880;28;20124;-64
2021/08/19 11:05:27;;;;;;;2.47;1.20;;;25.10;61.40;;;;;;10152092;28;20019;-64
2021/08/19 11:10:23;;;;;;;1.35;1.00;;;25.00;61.60;;;;;;10148607;28;20044;-63
2021/08/19 11:15:14;;;;;;;0.80;0.63;;;24.70;61.60;;;;;;10150154;28;20028;-65
2021/08/19 11:20:28;;;;;;;2.63;1.02;;;24.30;61.90;;;;;;10130914;28;20036;-64
2021/08/19 11:25:22;;;;;;;2.38;0.98;;;24.20;61.40;;;;;;10141599;28;20040;-65
2021/08/19 11:30:32;;;;;;;3.33;1.00;;;24.20;61.50;;;;;;10149019;28;20498;-64
2021/08/19 11:35:31;;;;;;;3.00;0.93;;;24.10;61.30;;;;;;10140005;28;20035;-64
2021/08/19 11:40:28;;;;;;;2.15;1.08;;;24.10;61.30;;;;;;10150510;28;20474;-64
2021/08/19 11:45:22;;;;;;;2.55;1.20;;;24.10;61.50;;;;;;10141790;28;20059;-63
2021/08/19 11:50:13;;;;;;;2.45;1.15;;;23.90;62.10;;;;;;10136159;28;20066;-64
2021/08/19 11:55:04;;;;;;;1.30;1.08;;;23.80;62.00;;;;;;10153434;28;20048;-64
2021/08/19 12:00:03;;;;;;;6.68;1.85;;;23.70;61.90;;;;;;10146693;28;20036;-64
2021/08/19 12:05:02;;;;;;;2.90;2.15;;;23.80;61.70;;;;;;10146574;28;20394;-64
2021/08/19 12:09:53;;;;;;;2.00;1.17;;;23.40;63.40;;;;;;10137648;28;20380;-63
2021/08/19 12:14:44;;;;;;;4.13;1.67;;;23.10;64.40;;;;;;10143154;28;20100;-64
2021/08/19 12:19:35;;;;;;;4.30;1.88;;;23.10;65.00;;;;;;10151993;28;20486;-64
2021/08/19 12:24:25;;;;;;;3.47;1.73;;;23.00;65.50;;;;;;10132690;28;20028;-65
2021/08/19 12:29:19;;;;;;;5.63;2.30;;;23.00;65.80;;;;;;10126652;28;20023;-65
2021/08/19 12:34:10;;;;;;;3.57;2.30;;;23.10;65.70;;;;;;10154388;28;20031;-63
2021/08/19 12:39:15;;;;;;;2.67;1.35;;;23.30;66.00;;;;;;10155634;28;20066;-64
2021/08/19 12:44:07;;;;;;;3.97;2.08;;;23.40;66.20;;;;;;10149569;28;20028;-63
2021/08/19 12:48:58;;;;;;;3.65;2.13;;;23.40;66.10;;;;;;10156223;28;20136;-63
2021/08/19 12:54:08;;;;;;;1.92;1.58;;;23.50;66.10;;;;;;10157269;28;20031;-64
2021/08/19 12:58:59;;;;;;;2.05;1.38;;;23.70;65.10;;;;;;10156989;28;20540;-64
2021/08/19 13:03:50;;;;;;;2.60;1.13;;;23.90;65.10;;;;;;10152683;28;20048;-64
2021/08/19 13:08:41;;;;;;;1.67;1.30;;;23.90;64.90;;;;;;10156140;28;20143;-65
2021/08/19 13:13:31;;;;;;;2.50;1.40;;;24.20;64.00;;;;;;10150368;28;20041;-64
2021/08/19 13:18:22;;;;;;;2.05;1.30;;;24.40;63.70;;;;;;10161161;28;20450;-64
2021/08/19 13:23:13;;;;;;;2.60;1.38;;;24.70;63.30;;;;;;10160705;28;20513;-64
2021/08/19 13:28:04;;;;;;;2.60;1.20;;;24.80;63.10;;;;;;10152257;28;20028;-64
2021/08/19 13:32:55;;;;;;;1.73;1.35;;;25.00;62.60;;;;;;10150824;28;20085;-64
2021/08/19 13:37:45;;;;;;;2.38;1.10;;;25.20;62.40;;;;;;10143936;28;20040;-64
2021/08/19 13:42:36;;;;;;;3.58;1.30;;;24.90;62.00;;;;;;10137404;28;20078;-64
2021/08/19 13:47:27;;;;;;;3.83;1.33;;;24.90;61.90;;;;;;10155093;28;20056;-64
2021/08/19 13:52:17;;;;;;;2.80;0.88;;;24.80;61.60;;;;;;10150510;28;20888;-64
2021/08/19 13:57:08;;;;;;;1.33;1.10;;;24.80;61.10;;;;;;10146271;28;20770;-63
2021/08/19 14:01:59;;;;;;;1.38;0.80;;;25.00;60.50;;;;;;10145048;28;20427;-64
2021/08/19 14:06:49;;;;;;;1.63;0.80;;;25.30;59.90;;;;;;10151974;28;20046;-65
2021/08/19 14:11:40;;;;;;;3.30;0.90;;;25.20;59.40;;;;;;10150565;28;20048;-64
2021/08/19 14:16:31;;;;;;;1.33;0.95;;;25.50;59.00;;;;;;10143912;28;20579;-64
2021/08/19 14:21:21;;;;;;;1.50;0.80;;;25.80;58.60;;;;;;10151372;28;20016;-64
2021/08/19 14:26:13;;;;;;;1.17;0.90;;;26.00;58.10;;;;;;10153968;28;20062;-64
2021/08/19 14:31:05;;;;;;;1.52;1.00;;;26.30;57.50;;;;;;10151157;28;20387;-64
2021/08/19 14:35:56;;;;;;;2.83;1.55;;;26.40;57.00;;;;;;10150639;28;20490;-64
2021/08/19 14:40:46;;;;;;;3.83;1.55;;;26.60;56.60;;;;;;10149177;28;20034;-64
2021/08/19 14:45:37;;;;;;;2.05;1.20;;;26.60;56.00;;;;;;10144092;28;20343;-64
2021/08/19 14:50:28;;;;;;;2.47;1.05;;;26.30;56.70;;;;;;10148908;28;20028;-64
2021/08/19 14:55:19;;;;;;;4.35;1.85;;;26.00;57.20;;;;;;10144718;28;20036;-64
2021/08/19 15:00:10;;;;;;;2.75;1.63;;;25.50;58.20;;;;;;10144993;28;20058;-64
2021/08/19 15:05:00;;;;;;;1.48;1.10;;;25.40;58.30;;;;;;10138327;28;20566;-63
2021/08/19 15:09:51;;;;;;;2.40;1.40;;;25.50;59.00;;;;;;10127877;28;20132;-60
2021/08/19 15:14:42;;;;;;;2.90;1.90;;;25.50;58.30;;;;;;10138746;28;20028;-61
2021/08/19 15:19:36;;;;;;;3.25;2.85;;;25.10;58.90;;;;;;10139242;28;20032;-61
2021/08/19 15:24:27;;;;;;;3.75;2.00;;;24.90;59.30;;;;;;10142297;28;20020;-63
2021/08/19 15:29:18;;;;;;;3.33;1.80;;;24.90;59.30;;;;;;10136588;28;20082;-62
2021/08/19 15:34:09;;;;;;;6.75;3.15;;;24.90;59.30;;;;;;10139882;28;20028;-62
2021/08/19 15:38:59;;;;;;;5.25;2.40;;;24.80;59.40;;;;;;10139705;28;20406;-63
2021/08/19 15:43:51;;;;;;;6.00;2.67;;;24.90;59.60;;;;;;10144326;28;20024;-64
2021/08/19 15:48:43;;;;;;;4.50;1.58;;;25.00;59.40;;;;;;10142823;28;20020;-63
2021/08/19 15:53:36;;;;;;;2.15;1.50;;;25.20;59.40;;;;;;10134998;28;20029;-62
2021/08/19 15:58:34;;;;;;;2.38;1.25;;;25.10;59.50;;;;;;10138155;28;20030;-62
2021/08/19 16:03:25;;;;;;;5.78;1.98;;;25.10;59.80;;;;;;10138184;28;20076;-62
2021/08/19 16:08:16;;;;;;;1.85;1.38;;;25.00;60.00;;;;;;10140975;28;20517;-62
2021/08/19 16:13:07;;;;;;;2.80;1.30;;;24.90;60.30;;;;;;10133681;28;20048;-62
2021/08/19 16:17:57;;;;;;;2.90;1.98;;;24.60;60.60;;;;;;10133502;28;20037;-61
2021/08/19 16:22:48;;;;;;;3.65;2.28;;;24.60;60.80;;;;;;10144078;28;20028;-61
2021/08/19 16:27:39;;;;;;;5.55;2.15;;;24.50;61.00;;;;;;10137162;28;20024;-63
2021/08/19 16:32:29;;;;;;;1.80;1.40;;;24.50;60.90;;;;;;10143871;28;20447;-63
2021/08/19 16:37:20;;;;;;;6.05;4.05;;;24.40;61.10;;;;;;10143023;28;20596;-61
2021/08/19 16:42:11;;;;;;;3.35;1.95;;;24.30;61.50;;;;;;10145285;28;20063;-62
2021/08/19 16:47:01;;;;;;;4.80;1.42;;;24.20;61.70;;;;;;10143675;28;20054;-62
2021/08/19 16:51:52;;;;;;;1.73;1.33;;;24.10;61.80;;;;;;10138766;28;20077;-62
2021/08/19 16:56:43;;;;;;;3.60;1.30;;;24.00;62.00;;;;;;10147705;28;20045;-61
2021/08/19 17:01:33;;;;;;;4.93;3.38;;;23.90;62.00;;;;;;10140988;28;20013;-62
2021/08/19 17:06:24;;;;;;;4.32;2.13;;;23.80;62.20;;;;;;10148564;28;20043;-65
2021/08/19 17:11:15;;;;;;;1.98;1.38;;;23.80;62.30;;;;;;10143247;28;20131;-63
2021/08/19 17:16:05;;;;;;;21.42;9.73;;;23.70;62.40;;;;;;10137928;28;20056;-62
2021/08/19 17:20:56;;;;;;;4.10;1.83;;;23.70;62.60;;;;;;10148583;28;20016;-62
2021/08/19 17:25:51;;;;;;;4.75;2.88;;;23.60;62.80;;;;;;10148006;28;20036;-64
2021/08/19 17:30:42;;;;;;;4.60;3.00;;;23.50;62.70;;;;;;10150516;28;20502;-62
2021/08/19 17:35:33;;;;;;;5.93;4.18;;;23.50;62.90;;;;;;10147259;28;20478;-55
2021/08/19 17:40:24;;;;;;;3.35;1.90;;;23.60;62.80;;;;;;10141265;28;20025;-60
2021/08/19 17:45:14;;;;;;;5.68;3.25;;;23.60;63.40;;;;;;10143820;28;20445;-60
2021/08/19 17:50:06;;;;;;;6.38;3.17;;;23.50;63.00;;;;;;10148222;28;20036;-57
2021/08/19 17:54:56;;;;;;;4.22;1.80;;;23.40;63.10;;;;;;10145858;28;20016;-55
2021/08/19 17:59:47;;;;;;;3.42;2.00;;;23.40;63.30;;;;;;10146649;28;20056;-58
2021/08/19 18:04:38;;;;;;;5.20;3.35;;;23.40;63.30;;;;;;10151114;28;20119;-58
2021/08/19 18:09:29;;;;;;;3.75;1.65;;;23.20;63.40;;;;;;10161592;28;20032;-54
2021/08/19 18:14:19;;;;;;;5.82;2.97;;;23.30;63.60;;;;;;10144341;28;20207;-60
2021/08/19 18:19:10;;;;;;;3.65;1.83;;;23.20;63.80;;;;;;10149291;28;20123;-60
2021/08/19 18:24:01;;;;;;;3.78;2.00;;;23.20;64.00;;;;;;10146431;28;20021;-62
2021/08/19 18:28:52;;;;;;;2.35;1.27;;;23.20;64.10;;;;;;10145222;28;20036;-59
2021/08/19 18:33:43;;;;;;;2.63;1.67;;;23.20;64.30;;;;;;10142003;28;20100;-59
2021/08/19 18:38:35;;;;;;;2.05;1.67;;;23.10;64.50;;;;;;10136575;28;20121;-60
2021/08/19 18:43:25;;;;;;;2.10;1.27;;;23.10;64.60;;;;;;10146468;28;20028;-60
2021/08/19 18:48:16;;;;;;;3.22;1.90;;;23.10;64.60;;;;;;10135888;28;20039;-59
2021/08/19 18:53:07;;;;;;;4.78;1.58;;;23.00;64.70;;;;;;10146789;28;20024;-60
2021/08/19 18:57:57;;;;;;;4.85;2.22;;;23.00;65.00;;;;;;10142815;28;20396;-62
2021/08/19 19:02:49;;;;;;;2.83;1.58;;;22.90;65.00;;;;;;10145641;28;20078;-60
2021/08/19 19:07:39;;;;;;;5.97;2.78;;;22.90;65.30;;;;;;10145746;28;20035;-59
2021/08/19 19:12:31;;;;;;;3.00;2.25;;;22.90;65.50;;;;;;10124525;28;20441;-58
2021/08/19 19:17:22;;;;;;;4.28;1.73;;;22.90;65.60;;;;;;10119106;28;20036;-61
2021/08/19 19:22:13;;;;;;;3.22;1.80;;;22.80;65.70;;;;;;10135208;28;20092;-59
2021/08/19 19:27:03;;;;;;;3.22;1.75;;;22.80;65.60;;;;;;10139523;28;20448;-61
2021/08/19 19:31:54;;;;;;;2.97;1.90;;;22.80;66.30;;;;;;10147541;28;20054;-62
2021/08/19 19:36:45;;;;;;;3.67;2.00;;;22.80;65.90;;;;;;10119735;28;20033;-64
2021/08/19 19:41:36;;;;;;;5.97;2.85;;;22.70;65.90;;;;;;10142158;28;20312;-63
2021/08/19 19:46:27;;;;;;;4.47;2.17;;;22.70;65.90;;;;;;10143365;28;20386;-63
2021/08/19 19:51:18;;;;;;;5.28;2.20;;;22.60;65.90;;;;;;10118804;28;20023;-62
2021/08/19 19:56:09;;;;;;;3.33;1.75;;;22.70;65.90;;;;;;10137986;28;20054;-62
2021/08/19 20:01:03;;;;;;;4.70;1.90;;;22.60;66.00;;;;;;10139168;28;20106;-63
2021/08/19 20:05:54;;;;;;;16.67;10.52;;;22.60;66.00;;;;;;10139043;28;20033;-62
2021/08/19 20:10:44;;;;;;;6.28;3.80;;;22.60;66.10;;;;;;10138593;28;20094;-63
2021/08/19 20:15:35;;;;;;;5.28;2.20;;;22.50;66.10;;;;;;10136913;28;20039;-63
2021/08/19 20:20:26;;;;;;;3.58;2.22;;;22.60;66.20;;;;;;10153498;28;20040;-62
2021/08/19 20:25:17;;;;;;;9.23;2.30;;;22.50;66.20;;;;;;10140813;28;20024;-62
2021/08/19 20:30:09;;;;;;;2.10;1.90;;;22.60;66.20;;;;;;10146627;28;20036;-62
2021/08/19 20:34:59;;;;;;;3.53;2.15;;;22.60;66.20;;;;;;10149365;28;20095;-62
2021/08/19 20:39:50;;;;;;;5.55;2.45;;;22.50;66.30;;;;;;10155542;28;20107;-62
2021/08/19 20:44:41;;;;;;;3.85;1.73;;;22.50;66.20;;;;;;10153468;28;20052;-63
2021/08/19 20:49:31;;;;;;;1.92;1.52;;;22.40;66.20;;;;;;10163841;28;20261;-63
2021/08/19 20:54:22;;;;;;;1.70;1.48;;;22.40;66.20;;;;;;10166577;28;20425;-62
2021/08/19 20:59:13;;;;;;;2.25;1.55;;;22.40;66.30;;;;;;10169527;28;20041;-62
2021/08/19 21:04:04;;;;;;;2.38;1.77;;;22.40;66.20;;;;;;10165506;28;20017;-63
2021/08/19 21:08:54;;;;;;;5.15;2.30;;;22.40;66.30;;;;;;10153417;28;20028;-63
2021/08/19 21:13:45;;;;;;;3.97;2.22;;;22.30;66.70;;;;;;10141989;28;20473;-62
2021/08/19 21:18:36;;;;;;;8.45;2.50;;;22.30;66.90;;;;;;10148545;28;20111;-62
2021/08/19 21:23:26;;;;;;;3.72;2.45;;;22.30;67.30;;;;;;10149991;28;20494;-62
2021/08/19 21:28:17;;;;;;;3.35;2.00;;;22.20;67.50;;;;;;10155671;28;20048;-63
2021/08/19 21:33:08;;;;;;;6.25;3.05;;;22.10;67.60;;;;;;10155019;28;20067;-62
2021/08/19 21:37:58;;;;;;;5.13;2.95;;;22.20;67.70;;;;;;10149929;28;20025;-60
2021/08/19 21:42:49;;;;;;;4.72;2.90;;;22.20;67.90;;;;;;10153381;28;20518;-61
2021/08/19 21:47:40;;;;;;;5.30;2.58;;;22.20;68.10;;;;;;10137374;28;20035;-61
2021/08/19 21:52:31;;;;;;;2.55;1.92;;;22.20;68.20;;;;;;10140128;28;20051;-62
2021/08/19 21:57:23;;;;;;;2.97;1.65;;;22.10;68.70;;;;;;10146769;28;20226;-63
2021/08/19 22:02:14;;;;;;;2.97;1.80;;;22.10;68.70;;;;;;10125319;28;20059;-62
2021/08/19 22:07:05;;;;;;;2.90;1.92;;;22.00;68.80;;;;;;10138508;28;20074;-61
2021/08/19 22:11:55;;;;;;;4.55;2.35;;;22.00;69.00;;;;;;10136444;28;20454;-62
2021/08/19 22:16:46;;;;;;;4.47;2.40;;;22.00;69.00;;;;;;10136583;28;20140;-62
2021/08/19 22:21:37;;;;;;;4.10;2.40;;;22.00;69.10;;;;;;10141641;28;20029;-62
2021/08/19 22:26:28;;;;;;;3.10;2.00;;;21.90;69.30;;;;;;10149116;28;20444;-62
2021/08/19 22:31:19;;;;;;;2.65;1.70;;;21.90;69.70;;;;;;10150142;28;20054;-63
2021/08/19 22:36:10;;;;;;;3.92;2.28;;;21.90;69.90;;;;;;10145647;28;20090;-63
2021/08/19 22:41:03;;;;;;;4.72;2.50;;;21.90;70.00;;;;;;10135650;28;20028;-62
2021/08/19 22:45:53;;;;;;;3.63;2.17;;;21.90;70.10;;;;;;10135743;28;20054;-62
2021/08/19 22:50:45;;;;;;;4.15;2.85;;;21.90;70.40;;;;;;10123871;28;20226;-62
2021/08/19 22:55:36;;;;;;;6.13;2.80;;;21.90;70.60;;;;;;10124238;28;20040;-62
2021/08/19 23:00:27;;;;;;;4.93;2.33;;;21.80;70.70;;;;;;10146401;28;20043;-61
2021/08/19 23:05:17;;;;;;;3.83;2.65;;;21.90;70.80;;;;;;10140280;28;20013;-63
2021/08/19 23:10:09;;;;;;;2.92;2.13;;;21.80;71.00;;;;;;10145101;28;20425;-61
2021/08/19 23:14:59;;;;;;;4.35;2.40;;;21.80;71.10;;;;;;10136599;28;20016;-61
2021/08/19 23:19:50;;;;;;;2.00;1.60;;;21.80;71.40;;;;;;10146348;28;20032;-63
2021/08/19 23:24:41;;;;;;;3.95;2.28;;;21.70;71.60;;;;;;10143976;28;20698;-61
2021/08/19 23:29:31;;;;;;;3.35;2.47;;;21.70;72.00;;;;;;10140755;28;20082;-62
2021/08/19 23:34:22;;;;;;;2.83;2.20;;;21.50;72.40;;;;;;10140099;28;20031;-62
2021/08/19 23:39:13;;;;;;;4.25;2.05;;;21.60;72.60;;;;;;10132542;28;20048;-61
2021/08/19 23:44:03;;;;;;;4.50;2.10;;;21.50;72.60;;;;;;10123193;28;20032;-63
2021/08/19 23:48:54;;;;;;;3.97;2.20;;;21.50;72.80;;;;;;10142093;28;20028;-62
2021/08/19 23:53:45;;;;;;;2.78;1.85;;;21.50;73.80;;;;;;10139926;28;20028;-62
2021/08/19 23:58:35;;;;;;;2.38;2.08;;;21.30;73.40;;;;;;10138917;28;20040;-61
